This is the latest recevied weather packets stored in our database for station/object DB0OHA-13. If no packets are shown the sender has not sent any weather packets the latest 10 day(s).
| Time | Temp. | Humidity | Pressure | Rain* | Wind** | Luminosity | Snow |
|---|---|---|---|---|---|---|---|
| 1777911671 | 20° C | 59% | 1011.3 hPa | 0 mm | - | 49 W/m² | - |
| 1777911071 | 20° C | 59% | 1011.3 hPa | 0 mm | - | 60 W/m² | - |
| 1777910471 | 20° C | 57% | 1011.3 hPa | 0 mm | - | 77 W/m² | - |
| 1777909871 | 20.56° C | 57% | 1011.3 hPa | 0 mm | - | 103 W/m² | - |
| 1777909271 | 20.56° C | 58% | 1011.3 hPa | 0 mm | - | 126 W/m² | - |
| 1777908671 | 20.56° C | 56% | 1011.3 hPa | 0 mm | - | 144 W/m² | - |
| 1777908071 | 20.56° C | 56% | 1011.3 hPa | 0 mm | - | 127 W/m² | - |
| 1777907470 | 21.11° C | 55% | 1011.4 hPa | 0 mm | - | 193 W/m² | - |
| 1777906871 | 22.22° C | 53% | 1011.5 hPa | 0 mm | - | 496 W/m² | - |
| 1777906270 | 20.56° C | 57% | 1011.5 hPa | 0 mm | - | 208 W/m² | - |
| 1777905670 | 21.11° C | 54% | 1011.7 hPa | 0 mm | - | 247 W/m² | - |
| 1777904470 | 21.67° C | 53% | 1011.8 hPa | 0 mm | - | 489 W/m² | - |
| 1777903870 | 22.22° C | 54% | 1012.1 hPa | 0 mm | - | 548 W/m² | - |
| 1777903270 | 21.67° C | 55% | 1012.1 hPa | 0 mm | - | 381 W/m² | - |
| 1777902670 | 21.67° C | 55% | 1012.2 hPa | 0 mm | - | 604 W/m² | - |
| 1777902070 | 22.22° C | 55% | 1012.3 hPa | 0 mm | - | 655 W/m² | - |
| 1777900870 | 21.11° C | 58% | 1012.5 hPa | 0 mm | - | 612 W/m² | - |
| 1777899670 | 21.67° C | 56% | 1012.5 hPa | 0 mm | - | 736 W/m² | - |
| 1777899069 | 21.67° C | 57% | 1012.7 hPa | 0 mm | - | 720 W/m² | - |
| 1777898470 | 20.56° C | 56% | 1012.6 hPa | 0 mm | - | 724 W/m² | - |
| 1777897869 | 21.11° C | 57% | 1012.9 hPa | 0 mm | - | 720 W/m² | - |
| 1777897269 | 20.56° C | 58% | 1012.9 hPa | 0 mm | - | 357 W/m² | - |
| 1777896669 | 21.11° C | 58% | 1013.1 hPa | 0 mm | - | 828 W/m² | - |
| 1777896069 | 20.56° C | 57% | 1013.1 hPa | 0 mm | - | 850 W/m² | - |
| 1777894874 | 20° C | 59% | 1013 hPa | 0 mm | - | 615 W/m² | - |
* Rain latest hour (hover to see other rain measurements)
** Current wind speed in m/s (hover to see current wind gust speed)